createdAt,value
2023-03-26T00:00:36.620Z,11.88
2023-03-26T00:01:36.882Z,11.80
2023-03-26T00:02:36.671Z,11.79
2023-03-26T00:03:36.622Z,11.85
2023-03-26T00:04:36.607Z,11.82
2023-03-26T00:05:36.614Z,11.80
2023-03-26T00:06:36.601Z,11.80
2023-03-26T00:07:36.580Z,11.80
2023-03-26T00:08:36.584Z,11.88
2023-03-26T00:09:36.576Z,11.89
2023-03-26T00:10:36.570Z,11.84
2023-03-26T00:11:36.560Z,11.88
2023-03-26T00:12:36.576Z,11.76
2023-03-26T00:13:36.556Z,11.79
2023-03-26T00:14:36.530Z,11.77
2023-03-26T00:15:36.528Z,11.80
2023-03-26T00:16:36.598Z,11.79
2023-03-26T00:17:36.565Z,11.77
2023-03-26T00:18:36.510Z,11.73
2023-03-26T00:19:36.489Z,11.77
2023-03-26T00:20:36.496Z,11.80
2023-03-26T00:21:36.510Z,11.74
2023-03-26T00:22:36.496Z,11.73
2023-03-26T00:23:36.484Z,11.79
2023-03-26T00:24:36.472Z,11.58
2023-03-26T00:25:36.447Z,11.58
2023-03-26T00:26:36.451Z,11.67
2023-03-26T00:27:36.482Z,11.67
2023-03-26T00:28:36.432Z,11.73
2023-03-26T00:29:36.435Z,11.64
2023-03-26T00:30:36.459Z,11.69
2023-03-26T00:31:36.417Z,11.76
2023-03-26T00:32:36.460Z,11.69
2023-03-26T00:33:36.410Z,11.64
2023-03-26T00:34:36.404Z,11.64
2023-03-26T00:35:36.414Z,11.70
2023-03-26T00:36:36.431Z,11.59
2023-03-26T00:37:36.376Z,11.61
2023-03-26T00:38:36.365Z,11.66
2023-03-26T00:39:36.364Z,11.67
2023-03-26T00:40:36.357Z,11.62
2023-03-26T00:41:36.361Z,11.66
2023-03-26T00:42:36.347Z,11.61
2023-03-26T00:43:36.367Z,11.62
2023-03-26T00:44:36.339Z,11.66
2023-03-26T00:45:36.325Z,11.62
2023-03-26T00:46:36.372Z,11.70
2023-03-26T00:47:36.336Z,11.71
2023-03-26T00:48:45.067Z,11.69
2023-03-26T00:49:36.301Z,11.66
2023-03-26T00:50:36.302Z,11.66
2023-03-26T00:51:36.286Z,11.61
2023-03-26T00:52:36.300Z,11.67
2023-03-26T00:53:36.270Z,11.76
2023-03-26T00:54:36.267Z,11.74
2023-03-26T00:55:36.253Z,11.71
2023-03-26T00:56:36.288Z,11.67
2023-03-26T00:57:36.558Z,11.64
2023-03-26T00:58:36.242Z,11.62
2023-03-26T00:59:36.241Z,11.70
2023-03-26T01:00:36.233Z,11.61
2023-03-26T01:01:36.239Z,11.76
2023-03-26T01:02:36.275Z,11.73
2023-03-26T01:03:36.287Z,11.71
2023-03-26T01:04:36.289Z,11.76
2023-03-26T01:05:36.203Z,11.73
2023-03-26T01:06:36.811Z,11.71
2023-03-26T01:07:36.184Z,11.59
2023-03-26T01:08:36.174Z,11.59
2023-03-26T01:09:36.174Z,11.48
2023-03-26T01:10:36.177Z,11.43
2023-03-26T01:11:36.165Z,11.28
2023-03-26T01:12:36.157Z,11.30
2023-03-26T01:13:36.144Z,11.09
2023-03-26T01:14:36.127Z,11.16
2023-03-26T01:15:36.145Z,11.27
2023-03-26T01:16:36.115Z,11.25
2023-03-26T01:17:36.205Z,11.15
2023-03-26T01:18:36.103Z,11.08
2023-03-26T01:19:36.117Z,10.95
2023-03-26T01:20:36.090Z,10.94
2023-03-26T01:21:36.080Z,11.04
2023-03-26T01:22:36.081Z,10.98
2023-03-26T01:23:36.070Z,10.91
2023-03-26T01:24:36.151Z,10.87
2023-03-26T01:25:36.072Z,10.87
2023-03-26T01:26:36.058Z,10.87
2023-03-26T01:27:36.108Z,10.86
2023-03-26T01:28:36.035Z,10.75
2023-03-26T01:29:36.049Z,10.67
2023-03-26T01:30:36.022Z,10.64
2023-03-26T01:31:36.020Z,10.58
2023-03-26T01:32:36.073Z,10.70
2023-03-26T01:33:36.096Z,10.70
2023-03-26T01:34:36.000Z,10.65
2023-03-26T01:35:36.008Z,10.65
2023-03-26T01:36:35.991Z,10.82
2023-03-26T01:37:35.976Z,10.83
2023-03-26T01:38:35.973Z,10.90
2023-03-26T01:39:35.961Z,11.01
2023-03-26T01:40:35.966Z,11.04
2023-03-26T01:41:35.946Z,11.11
2023-03-26T01:42:35.950Z,11.11
2023-03-26T01:43:35.945Z,11.12
2023-03-26T01:44:35.945Z,11.18
2023-03-26T01:45:35.935Z,11.13
2023-03-26T01:46:35.978Z,11.22
2023-03-26T01:47:35.947Z,11.11
2023-03-26T01:48:35.907Z,11.08
2023-03-26T01:49:36.797Z,11.04
2023-03-26T01:50:35.892Z,11.08
2023-03-26T01:51:35.902Z,11.15
2023-03-26T01:52:35.879Z,11.04
2023-03-26T01:53:35.869Z,10.98
2023-03-26T01:54:35.863Z,10.91
2023-03-26T01:55:35.856Z,10.85
2023-03-26T01:56:36.814Z,10.76
2023-03-26T01:57:56.873Z,10.73
2023-03-26T01:58:37.812Z,10.75
2023-03-26T01:59:56.840Z,10.61
2023-03-26T02:00:35.830Z,10.60
2023-03-26T02:01:35.927Z,10.72
2023-03-26T02:02:36.029Z,10.67
2023-03-26T02:03:35.859Z,10.70
2023-03-26T02:04:35.795Z,10.72
2023-03-26T02:05:35.799Z,10.65
2023-03-26T02:06:35.792Z,10.65
2023-03-26T02:07:35.778Z,10.72
2023-03-26T02:08:36.085Z,10.64
2023-03-26T02:09:35.761Z,10.68
2023-03-26T02:10:35.749Z,10.58
2023-03-26T02:11:36.158Z,10.67
2023-03-26T02:12:35.759Z,10.75
2023-03-26T02:13:35.735Z,10.75
2023-03-26T02:14:35.724Z,10.67
2023-03-26T02:15:35.713Z,10.82
2023-03-26T02:16:35.747Z,10.73
2023-03-26T02:17:35.731Z,10.75
2023-03-26T02:18:35.694Z,10.76
2023-03-26T02:19:35.690Z,10.68
2023-03-26T02:20:35.697Z,10.62
2023-03-26T02:21:35.682Z,10.57
2023-03-26T02:22:35.665Z,10.54
2023-03-26T02:23:35.703Z,10.45
2023-03-26T02:24:35.658Z,10.45
2023-03-26T02:25:35.656Z,10.61
2023-03-26T02:26:35.641Z,10.46
2023-03-26T02:27:35.631Z,10.43
2023-03-26T02:28:35.637Z,10.48
2023-03-26T02:29:35.619Z,10.43
2023-03-26T02:30:35.613Z,10.52
2023-03-26T02:31:35.630Z,10.43
2023-03-26T02:32:35.612Z,10.42
2023-03-26T02:33:35.594Z,10.43
2023-03-26T02:34:35.582Z,10.48
2023-03-26T02:35:35.646Z,10.49
2023-03-26T02:36:35.696Z,10.46
2023-03-26T02:37:35.559Z,10.62
2023-03-26T02:38:35.596Z,10.48
2023-03-26T02:39:35.549Z,10.55
2023-03-26T02:40:35.538Z,10.49
2023-03-26T02:41:35.544Z,10.48
2023-03-26T02:42:35.526Z,10.57
2023-03-26T02:43:35.528Z,10.62
2023-03-26T02:44:35.517Z,10.61
2023-03-26T02:45:35.564Z,10.62
2023-03-26T02:46:35.507Z,10.64
2023-03-26T02:47:35.502Z,10.58
2023-03-26T02:48:35.490Z,10.60
2023-03-26T02:49:35.478Z,10.72
2023-03-26T02:50:35.475Z,10.68
2023-03-26T02:51:35.472Z,10.62
2023-03-26T02:52:35.468Z,10.73
2023-03-26T02:53:35.448Z,10.68
2023-03-26T02:54:35.447Z,10.72
2023-03-26T02:55:35.438Z,10.83
2023-03-26T02:56:35.504Z,10.70
2023-03-26T02:57:35.433Z,10.72
2023-03-26T02:58:35.415Z,10.79
2023-03-26T02:59:35.411Z,10.75
2023-03-26T03:00:35.404Z,10.70
2023-03-26T03:01:35.498Z,10.61
2023-03-26T03:02:35.488Z,10.68
2023-03-26T03:03:35.401Z,10.73
2023-03-26T03:04:35.385Z,10.75
2023-03-26T03:05:35.369Z,10.70
2023-03-26T03:06:35.355Z,10.70
2023-03-26T03:07:35.352Z,10.61
2023-03-26T03:08:35.379Z,10.68
2023-03-26T03:09:35.350Z,10.60
2023-03-26T03:10:35.346Z,10.68
2023-03-26T03:11:35.325Z,10.68
2023-03-26T03:12:35.310Z,10.68
2023-03-26T03:13:35.311Z,10.68
2023-03-26T03:14:35.308Z,10.65
2023-03-26T03:15:35.290Z,10.78
2023-03-26T03:16:35.327Z,10.72
2023-03-26T03:17:35.316Z,10.73
2023-03-26T03:18:35.277Z,10.72
2023-03-26T03:19:35.274Z,10.67
2023-03-26T03:20:35.348Z,10.64
2023-03-26T03:21:35.253Z,10.75
2023-03-26T03:22:35.246Z,10.73
2023-03-26T03:23:35.240Z,10.65
2023-03-26T03:24:35.237Z,10.67
2023-03-26T03:25:35.246Z,10.75
2023-03-26T03:26:35.221Z,10.68
2023-03-26T03:27:35.226Z,10.67
2023-03-26T03:28:35.208Z,10.68
2023-03-26T03:29:35.208Z,10.65
2023-03-26T03:30:35.196Z,10.61
2023-03-26T03:31:35.210Z,10.75
2023-03-26T03:32:35.243Z,10.65
2023-03-26T03:33:35.172Z,10.68
2023-03-26T03:34:35.173Z,10.72
2023-03-26T03:35:35.232Z,10.70
2023-03-26T03:36:39.829Z,10.79
2023-03-26T03:37:35.826Z,10.85
2023-03-26T03:38:35.146Z,10.79
2023-03-26T03:39:35.131Z,10.73
2023-03-26T03:40:35.143Z,10.68
2023-03-26T03:41:35.131Z,10.76
2023-03-26T03:42:35.134Z,10.78
2023-03-26T03:43:35.113Z,10.90
2023-03-26T03:44:35.106Z,10.86
2023-03-26T03:45:35.104Z,10.87
2023-03-26T03:46:35.099Z,10.93
2023-03-26T03:47:35.121Z,10.87
2023-03-26T03:48:35.093Z,11.00
2023-03-26T03:49:35.069Z,11.08
2023-03-26T03:50:35.956Z,10.95
2023-03-26T03:51:35.050Z,10.97
2023-03-26T03:52:35.086Z,10.86
2023-03-26T03:53:35.035Z,10.90
2023-03-26T03:54:35.027Z,10.86
2023-03-26T03:55:35.018Z,10.86
2023-03-26T03:56:35.045Z,10.85
2023-03-26T03:57:35.018Z,10.86
2023-03-26T03:58:35.006Z,10.90
2023-03-26T03:59:34.999Z,10.93
2023-03-26T04:00:34.992Z,11.01
2023-03-26T04:01:34.987Z,11.01
2023-03-26T04:02:35.258Z,10.98
2023-03-26T04:03:35.044Z,10.94
2023-03-26T04:04:35.151Z,10.91
2023-03-26T04:05:34.966Z,10.87
2023-03-26T04:06:34.955Z,10.98
2023-03-26T04:07:34.942Z,10.97
2023-03-26T04:08:34.935Z,11.00
2023-03-26T04:09:34.935Z,10.94
2023-03-26T04:10:34.929Z,10.90
2023-03-26T04:11:34.925Z,10.90
2023-03-26T04:12:34.906Z,11.00
2023-03-26T04:13:34.894Z,10.86
2023-03-26T04:14:34.894Z,10.86
2023-03-26T04:15:34.883Z,10.91
2023-03-26T04:16:34.941Z,10.85
2023-03-26T04:17:34.895Z,10.82
2023-03-26T04:18:34.881Z,10.70
2023-03-26T04:19:34.861Z,10.67
2023-03-26T04:20:34.846Z,10.73
2023-03-26T04:21:34.849Z,10.70
2023-03-26T04:22:34.918Z,10.65
2023-03-26T04:23:34.833Z,10.75
2023-03-26T04:24:34.829Z,10.70
2023-03-26T04:25:45.615Z,10.67
2023-03-26T04:26:35.356Z,10.65
2023-03-26T04:27:34.795Z,10.62
2023-03-26T04:28:34.792Z,10.67
2023-03-26T04:29:34.788Z,10.73
2023-03-26T04:30:34.786Z,10.72
2023-03-26T04:31:34.794Z,10.64
2023-03-26T04:32:34.839Z,10.67
2023-03-26T04:33:34.779Z,10.65
2023-03-26T04:34:34.760Z,10.60
2023-03-26T04:35:34.813Z,10.62
2023-03-26T04:36:34.762Z,10.68
2023-03-26T04:37:34.736Z,10.73
2023-03-26T04:38:34.727Z,10.65
2023-03-26T04:39:34.750Z,10.76
2023-03-26T04:40:34.725Z,10.70
2023-03-26T04:41:34.708Z,10.72
2023-03-26T04:42:34.701Z,10.73
2023-03-26T04:43:34.697Z,10.70
2023-03-26T04:44:34.696Z,10.67
2023-03-26T04:45:34.678Z,10.61
2023-03-26T04:46:34.688Z,10.70
2023-03-26T04:47:34.700Z,10.58
2023-03-26T04:48:34.655Z,10.54
2023-03-26T04:49:34.653Z,10.46
2023-03-26T04:50:34.647Z,10.36
2023-03-26T04:51:34.640Z,10.24
2023-03-26T04:52:34.639Z,10.34
2023-03-26T04:53:34.625Z,10.30
2023-03-26T04:54:34.612Z,10.38
2023-03-26T04:55:34.603Z,10.34
2023-03-26T04:56:34.648Z,10.38
2023-03-26T04:57:34.593Z,10.60
2023-03-26T04:58:34.592Z,10.52
2023-03-26T04:59:34.574Z,10.36
2023-03-26T05:00:34.592Z,10.45
2023-03-26T05:01:34.590Z,10.52
2023-03-26T05:02:34.569Z,10.46
2023-03-26T05:03:34.549Z,10.62
2023-03-26T05:04:34.575Z,10.67
2023-03-26T05:05:34.542Z,10.68
2023-03-26T05:06:34.581Z,10.67
2023-03-26T05:07:34.514Z,10.46
2023-03-26T05:08:34.512Z,10.39
2023-03-26T05:09:34.503Z,10.26
2023-03-26T05:10:34.494Z,10.09
2023-03-26T05:11:34.489Z,10.17
2023-03-26T05:12:34.484Z,10.20
2023-03-26T05:13:34.473Z,10.24
2023-03-26T05:14:34.476Z,10.21
2023-03-26T05:15:34.460Z,10.28
2023-03-26T05:16:34.488Z,10.41
2023-03-26T05:17:34.478Z,10.38
2023-03-26T05:18:34.444Z,10.48
2023-03-26T05:19:34.434Z,10.54
2023-03-26T05:20:34.451Z,10.58
2023-03-26T05:21:34.431Z,10.65
2023-03-26T05:22:36.628Z,10.58
2023-03-26T05:23:34.408Z,10.54
2023-03-26T05:24:34.405Z,10.52
2023-03-26T05:25:34.384Z,10.54
2023-03-26T05:26:34.391Z,10.60
2023-03-26T05:27:34.373Z,10.64
2023-03-26T05:28:34.379Z,10.68
2023-03-26T05:29:34.361Z,10.58
2023-03-26T05:30:34.355Z,10.72
2023-03-26T05:31:34.354Z,10.64
2023-03-26T05:32:34.438Z,10.55
2023-03-26T05:33:34.507Z,10.64
2023-03-26T05:34:34.332Z,10.61
2023-03-26T05:35:38.953Z,10.65
2023-03-26T05:36:34.311Z,10.70
2023-03-26T05:37:34.302Z,10.65
2023-03-26T05:38:34.317Z,10.54
2023-03-26T05:39:34.293Z,10.52
2023-03-26T05:40:34.284Z,10.42
2023-03-26T05:41:34.296Z,10.36
2023-03-26T05:42:34.272Z,10.24
2023-03-26T05:43:34.262Z,10.20
2023-03-26T05:44:34.252Z,10.14
2023-03-26T05:45:34.271Z,10.05
2023-03-26T05:46:34.311Z,9.84
2023-03-26T05:47:34.286Z,9.93
2023-03-26T05:48:34.237Z,9.96
2023-03-26T05:49:34.227Z,9.96
2023-03-26T05:50:34.225Z,10.03
2023-03-26T05:51:34.207Z,9.94
2023-03-26T05:52:34.201Z,10.02
2023-03-26T05:53:34.192Z,9.99
2023-03-26T05:54:34.202Z,10.03
2023-03-26T05:55:34.176Z,10.08
2023-03-26T05:56:34.186Z,9.98
2023-03-26T05:57:34.167Z,9.93
2023-03-26T05:58:34.161Z,9.96
2023-03-26T05:59:34.158Z,9.94
2023-03-26T06:00:34.152Z,9.87
2023-03-26T06:01:34.135Z,9.81
2023-03-26T06:02:34.166Z,9.85
2023-03-26T06:03:34.284Z,9.85
2023-03-26T06:04:34.175Z,9.85
2023-03-26T06:05:34.114Z,9.66
2023-03-26T06:06:34.103Z,9.70
2023-03-26T06:07:34.126Z,9.60
2023-03-26T06:08:34.105Z,9.59
2023-03-26T06:09:34.084Z,9.73
2023-03-26T06:10:34.068Z,9.69
2023-03-26T06:11:34.073Z,9.67
2023-03-26T06:12:34.078Z,9.70
2023-03-26T06:13:34.046Z,9.72
2023-03-26T06:14:34.051Z,9.84
2023-03-26T06:15:34.066Z,9.70
2023-03-26T06:16:34.081Z,9.73
2023-03-26T06:17:34.047Z,9.67
2023-03-26T06:18:34.039Z,9.72
2023-03-26T06:19:34.016Z,9.81
2023-03-26T06:20:34.007Z,9.69
2023-03-26T06:21:33.984Z,9.77
2023-03-26T06:22:33.984Z,9.83
2023-03-26T06:23:33.987Z,9.88
2023-03-26T06:24:33.972Z,9.93
2023-03-26T06:25:33.962Z,9.85
2023-03-26T06:26:33.956Z,9.88
2023-03-26T06:27:33.952Z,9.83
2023-03-26T06:28:33.951Z,9.83
2023-03-26T06:29:33.933Z,9.85
2023-03-26T06:30:33.947Z,9.83
2023-03-26T06:31:33.944Z,9.83
2023-03-26T06:32:33.939Z,9.83
2023-03-26T06:33:33.910Z,9.83
2023-03-26T06:34:33.899Z,9.85
2023-03-26T06:35:33.936Z,9.91
2023-03-26T06:36:33.895Z,9.91
2023-03-26T06:37:33.874Z,9.99
2023-03-26T06:38:33.872Z,10.01
2023-03-26T06:39:33.884Z,9.98
2023-03-26T06:40:34.444Z,10.03
2023-03-26T06:41:33.857Z,10.03
2023-03-26T06:43:08.487Z,10.17
2023-03-26T06:43:34.026Z,10.14
2023-03-26T06:44:33.844Z,10.17
2023-03-26T06:45:33.818Z,10.08
2023-03-26T06:46:33.854Z,10.03
2023-03-26T06:47:33.822Z,9.99
2023-03-26T06:48:33.803Z,10.01
2023-03-26T06:49:33.798Z,9.98
2023-03-26T06:50:33.791Z,9.96
2023-03-26T06:51:33.776Z,10.03
2023-03-26T06:52:33.772Z,10.05
2023-03-26T06:53:33.764Z,9.98
2023-03-26T06:54:33.767Z,9.83
2023-03-26T06:55:33.756Z,9.85
2023-03-26T06:56:33.768Z,9.93
2023-03-26T06:57:33.734Z,9.99
2023-03-26T06:58:33.727Z,10.08
2023-03-26T06:59:33.716Z,10.12
2023-03-26T07:00:33.715Z,9.94
2023-03-26T07:01:33.771Z,9.96
2023-03-26T07:02:33.725Z,9.85
2023-03-26T07:03:33.774Z,9.83
2023-03-26T07:04:33.692Z,9.81
2023-03-26T07:05:33.678Z,9.85
2023-03-26T07:06:33.686Z,9.81
2023-03-26T07:07:33.661Z,9.83
2023-03-26T07:08:33.670Z,9.84
2023-03-26T07:09:33.635Z,9.88
2023-03-26T07:10:33.645Z,9.93
2023-03-26T07:11:33.626Z,9.91
2023-03-26T07:12:33.625Z,9.93
2023-03-26T07:13:33.615Z,9.99
2023-03-26T07:14:33.601Z,9.91
2023-03-26T07:15:33.598Z,9.98
2023-03-26T07:16:33.630Z,10.05
2023-03-26T07:17:33.624Z,10.01
2023-03-26T07:18:33.579Z,10.06
2023-03-26T07:19:33.570Z,10.02
2023-03-26T07:20:33.552Z,10.01
2023-03-26T07:21:33.544Z,9.83
2023-03-26T07:22:33.542Z,9.84
2023-03-26T07:23:33.537Z,9.85
2023-03-26T07:24:33.524Z,9.81
2023-03-26T07:25:33.516Z,9.70
2023-03-26T07:26:33.515Z,9.84
2023-03-26T07:27:33.508Z,9.80
2023-03-26T07:28:33.502Z,9.85
2023-03-26T07:29:33.498Z,9.83
2023-03-26T07:30:33.480Z,9.84
2023-03-26T07:31:33.481Z,9.75
2023-03-26T07:32:33.485Z,9.70
2023-03-26T07:33:33.455Z,9.72
2023-03-26T07:34:33.452Z,9.77
2023-03-26T07:35:33.487Z,9.90
2023-03-26T07:36:33.427Z,9.81
2023-03-26T07:37:33.422Z,9.84
2023-03-26T07:38:33.408Z,9.88
2023-03-26T07:39:33.407Z,9.83
2023-03-26T07:40:33.409Z,9.87
2023-03-26T07:41:33.393Z,9.88
2023-03-26T07:42:33.380Z,9.81
2023-03-26T07:43:33.388Z,9.72
2023-03-26T07:44:35.258Z,9.70
2023-03-26T07:45:33.383Z,9.57
2023-03-26T07:46:33.355Z,9.65
2023-03-26T07:47:33.374Z,9.69
2023-03-26T07:48:33.335Z,9.73
2023-03-26T07:49:33.328Z,9.65
2023-03-26T07:50:33.321Z,9.72
2023-03-26T07:51:33.325Z,9.66
2023-03-26T07:52:33.299Z,9.62
2023-03-26T07:53:33.306Z,9.66
2023-03-26T07:54:33.300Z,9.77
2023-03-26T07:55:33.318Z,9.59
2023-03-26T07:56:33.324Z,9.65
2023-03-26T07:57:33.308Z,9.57
2023-03-26T07:58:33.249Z,9.62
2023-03-26T07:59:33.257Z,9.62
2023-03-26T08:00:33.248Z,9.63
2023-03-26T08:01:33.239Z,9.55
2023-03-26T08:02:33.274Z,9.67
2023-03-26T08:03:33.342Z,9.72
2023-03-26T08:04:33.270Z,9.60
2023-03-26T08:05:33.209Z,9.63
2023-03-26T08:06:33.199Z,9.73
2023-03-26T08:07:33.186Z,9.67
2023-03-26T08:08:33.177Z,9.70
2023-03-26T08:09:33.175Z,9.59
2023-03-26T08:10:33.168Z,9.54
2023-03-26T08:11:33.148Z,9.57
2023-03-26T08:12:33.146Z,9.54
2023-03-26T08:13:33.130Z,9.51
2023-03-26T08:14:33.135Z,9.48
2023-03-26T08:15:33.272Z,9.51
2023-03-26T08:16:33.114Z,9.50
2023-03-26T08:17:33.160Z,9.52
2023-03-26T08:18:33.103Z,9.54
2023-03-26T08:19:33.112Z,9.50
2023-03-26T08:20:33.072Z,9.48
2023-03-26T08:21:33.075Z,9.50
2023-03-26T08:22:33.060Z,9.52
2023-03-26T08:23:33.064Z,9.55
2023-03-26T08:24:33.046Z,9.60
2023-03-26T08:25:33.071Z,9.55
2023-03-26T08:26:33.028Z,9.54
2023-03-26T08:27:33.029Z,9.54
2023-03-26T08:28:33.025Z,9.50
2023-03-26T08:29:33.028Z,9.50
2023-03-26T08:30:33.034Z,9.50
2023-03-26T08:31:33.065Z,9.50
2023-03-26T08:32:32.981Z,9.48
2023-03-26T08:33:32.983Z,9.40
2023-03-26T08:34:32.956Z,9.41
2023-03-26T08:35:32.967Z,9.45
2023-03-26T08:36:32.946Z,9.52
2023-03-26T08:37:32.935Z,9.45
2023-03-26T08:38:32.944Z,9.30
2023-03-26T08:39:32.925Z,9.50
2023-03-26T08:40:32.912Z,9.41
2023-03-26T08:41:32.901Z,9.54
2023-03-26T08:42:32.911Z,9.32
2023-03-26T08:43:32.896Z,9.23
2023-03-26T08:44:32.882Z,9.23
2023-03-26T08:45:32.872Z,9.29
2023-03-26T08:46:32.905Z,9.24
2023-03-26T08:47:32.884Z,9.19
2023-03-26T08:48:32.849Z,9.27
2023-03-26T08:49:32.841Z,9.30
2023-03-26T08:50:32.834Z,9.14
2023-03-26T08:51:32.827Z,9.16
2023-03-26T08:52:32.817Z,9.14
2023-03-26T08:53:32.810Z,9.14
2023-03-26T08:54:32.800Z,9.26
2023-03-26T08:55:32.800Z,9.23
2023-03-26T08:56:32.802Z,9.24
2023-03-26T08:57:32.786Z,9.29
2023-03-26T08:58:32.799Z,9.24
2023-03-26T08:59:32.767Z,9.14
2023-03-26T09:00:32.759Z,9.14
2023-03-26T09:01:32.753Z,8.99
2023-03-26T09:02:32.765Z,9.09
2023-03-26T09:03:32.757Z,9.14
2023-03-26T09:04:32.713Z,9.26
2023-03-26T09:05:32.714Z,9.22
2023-03-26T09:06:32.700Z,9.14
2023-03-26T09:07:32.693Z,9.15
2023-03-26T09:08:32.685Z,9.16
2023-03-26T09:09:32.674Z,9.15
2023-03-26T09:10:32.662Z,9.27
2023-03-26T09:11:32.673Z,9.33
2023-03-26T09:12:32.681Z,9.36
2023-03-26T09:13:32.640Z,9.48
2023-03-26T09:14:32.638Z,9.52
2023-03-26T09:15:32.629Z,9.48
2023-03-26T09:16:32.658Z,9.32
2023-03-26T09:17:32.642Z,9.36
2023-03-26T09:18:32.608Z,9.51
2023-03-26T09:19:32.610Z,9.32
2023-03-26T09:20:32.583Z,9.44
2023-03-26T09:21:32.567Z,9.30
2023-03-26T09:22:32.570Z,9.26
2023-03-26T09:23:32.556Z,9.22
2023-03-26T09:24:32.554Z,9.15
2023-03-26T09:25:32.567Z,9.23
2023-03-26T09:26:32.530Z,9.23
2023-03-26T09:27:32.522Z,9.16
2023-03-26T09:28:32.512Z,9.24
2023-03-26T09:29:33.127Z,9.29
2023-03-26T09:30:32.517Z,9.26
2023-03-26T09:31:32.547Z,9.23
2023-03-26T09:32:32.525Z,9.14
2023-03-26T09:33:32.487Z,9.14
2023-03-26T09:34:32.481Z,9.30
2023-03-26T09:35:32.509Z,9.27
2023-03-26T09:36:32.460Z,9.29
2023-03-26T09:37:32.457Z,9.26
2023-03-26T09:38:32.435Z,9.37
2023-03-26T09:39:32.432Z,9.40
2023-03-26T09:40:32.421Z,9.30
2023-03-26T09:41:32.423Z,9.32
2023-03-26T09:42:32.406Z,9.50
2023-03-26T09:43:32.396Z,9.54
2023-03-26T09:44:32.388Z,9.51
2023-03-26T09:45:32.546Z,9.52
2023-03-26T09:46:32.375Z,9.59
2023-03-26T09:47:32.403Z,9.66
2023-03-26T09:48:32.350Z,9.62
2023-03-26T09:49:32.353Z,9.70
2023-03-26T09:50:32.334Z,9.78
2023-03-26T09:51:32.329Z,9.84
2023-03-26T09:52:32.320Z,9.85
2023-03-26T09:53:32.308Z,9.83
2023-03-26T09:54:32.312Z,9.78
2023-03-26T09:55:32.313Z,9.91
2023-03-26T09:56:32.356Z,10.01
2023-03-26T09:57:32.300Z,10.01
2023-03-26T09:58:32.270Z,10.02
2023-03-26T09:59:32.271Z,9.96
2023-03-26T10:00:32.258Z,10.12
2023-03-26T10:01:32.303Z,10.18
2023-03-26T10:02:46.772Z,10.21
2023-03-26T10:03:32.256Z,10.23
2023-03-26T10:04:32.279Z,10.26
2023-03-26T10:05:32.218Z,10.20
2023-03-26T10:06:32.212Z,10.27
2023-03-26T10:07:32.202Z,10.41
2023-03-26T10:08:32.602Z,10.38
2023-03-26T10:09:32.178Z,10.43
2023-03-26T10:10:32.175Z,10.35
2023-03-26T10:11:32.175Z,10.31
2023-03-26T10:12:32.273Z,10.58
2023-03-26T10:13:32.168Z,10.68
2023-03-26T10:14:32.144Z,10.67
2023-03-26T10:15:32.155Z,10.62
2023-03-26T10:16:32.167Z,10.42
2023-03-26T10:17:32.182Z,10.21
2023-03-26T10:18:32.183Z,10.31
2023-03-26T10:19:32.110Z,10.41
2023-03-26T10:20:32.106Z,10.36
2023-03-26T10:21:32.093Z,10.30
2023-03-26T10:22:32.084Z,10.23
2023-03-26T10:23:32.069Z,10.24
2023-03-26T10:24:32.069Z,10.21
2023-03-26T10:25:32.080Z,10.30
2023-03-26T10:26:32.055Z,10.34
2023-03-26T10:27:32.056Z,10.26
2023-03-26T10:28:32.051Z,10.12
2023-03-26T10:29:32.039Z,10.06
2023-03-26T10:30:32.043Z,10.06
2023-03-26T10:31:32.022Z,10.08
2023-03-26T10:32:32.039Z,10.03
2023-03-26T10:33:32.005Z,10.10
2023-03-26T10:34:31.983Z,10.09
2023-03-26T10:35:32.058Z,10.05
2023-03-26T10:36:31.972Z,10.10
2023-03-26T10:37:31.975Z,10.08
2023-03-26T10:38:31.958Z,10.18
2023-03-26T10:39:36.316Z,10.01
2023-03-26T10:40:31.936Z,10.08
2023-03-26T10:41:31.939Z,10.05
2023-03-26T10:42:31.921Z,10.20
2023-03-26T10:43:31.943Z,10.08
2023-03-26T10:44:31.925Z,10.20
2023-03-26T10:45:31.895Z,10.18
2023-03-26T10:46:31.959Z,10.31
2023-03-26T10:47:31.903Z,10.35
2023-03-26T10:48:31.869Z,10.30
2023-03-26T10:49:31.862Z,10.26
2023-03-26T10:50:31.855Z,10.39
2023-03-26T10:51:31.849Z,10.26
2023-03-26T10:52:31.847Z,10.23
2023-03-26T10:53:31.870Z,10.20
2023-03-26T10:54:31.835Z,10.24
2023-03-26T10:55:31.820Z,10.26
2023-03-26T10:56:31.858Z,10.28
2023-03-26T10:57:31.803Z,10.41
2023-03-26T10:58:48.694Z,10.41
2023-03-26T10:59:31.777Z,10.38
2023-03-26T11:00:31.781Z,10.36
2023-03-26T11:01:31.827Z,10.21
2023-03-26T11:02:31.819Z,10.43
2023-03-26T11:03:31.760Z,10.26
2023-03-26T11:04:31.750Z,10.27
2023-03-26T11:05:31.809Z,10.24
2023-03-26T11:06:31.737Z,10.31
2023-03-26T11:07:31.731Z,10.39
2023-03-26T11:08:32.363Z,10.43
2023-03-26T11:09:31.715Z,10.35
2023-03-26T11:10:31.706Z,10.61
2023-03-26T11:11:31.715Z,10.52
2023-03-26T11:12:31.690Z,10.45
2023-03-26T11:13:31.715Z,10.55
2023-03-26T11:14:34.743Z,10.62
2023-03-26T11:15:31.682Z,10.58
2023-03-26T11:16:31.672Z,10.61
2023-03-26T11:17:40.273Z,10.61
2023-03-26T11:18:31.656Z,10.65
2023-03-26T11:19:31.643Z,10.46
2023-03-26T11:20:31.638Z,10.54
2023-03-26T11:21:31.626Z,10.48
2023-03-26T11:22:31.619Z,10.55
2023-03-26T11:23:31.617Z,10.57
2023-03-26T11:24:31.599Z,10.60
2023-03-26T11:25:31.597Z,10.68
2023-03-26T11:26:31.595Z,10.57
2023-03-26T11:27:31.583Z,10.61
2023-03-26T11:28:31.574Z,10.70
2023-03-26T11:30:31.569Z,10.62
2023-03-26T11:31:31.567Z,10.67
2023-03-26T11:32:31.549Z,10.68
2023-03-26T11:33:32.873Z,10.62
2023-03-26T11:34:31.528Z,10.68
2023-03-26T11:34:36.908Z,10.64
2023-03-26T11:35:39.459Z,10.62
2023-03-26T11:36:31.516Z,10.64
2023-03-26T11:37:31.500Z,10.60
2023-03-26T11:38:31.499Z,10.68
2023-03-26T11:39:31.490Z,10.60
2023-03-26T11:40:31.486Z,10.46
2023-03-26T11:41:31.476Z,10.52
2023-03-26T11:42:31.471Z,10.57
2023-03-26T11:43:31.447Z,10.61
2023-03-26T11:44:31.456Z,10.70
2023-03-26T11:45:31.447Z,10.61
2023-03-26T11:46:33.554Z,10.54
2023-03-26T11:47:31.465Z,10.39
2023-03-26T11:48:31.447Z,10.42
2023-03-26T11:49:31.411Z,10.39
2023-03-26T11:50:31.418Z,10.46
2023-03-26T11:51:31.430Z,10.36
2023-03-26T11:52:31.386Z,10.36
2023-03-26T11:53:31.384Z,10.36
2023-03-26T11:54:31.372Z,10.49
2023-03-26T11:55:31.370Z,10.54
2023-03-26T11:56:31.479Z,10.43
2023-03-26T11:57:31.382Z,10.46
2023-03-26T11:58:31.375Z,10.54
2023-03-26T11:59:32.640Z,10.55
2023-03-26T12:00:31.383Z,10.67
2023-03-26T12:01:31.328Z,10.61
2023-03-26T12:02:31.377Z,10.65
2023-03-26T12:03:31.299Z,10.67
2023-03-26T12:04:32.050Z,10.72
2023-03-26T12:05:31.280Z,10.60
2023-03-26T12:06:31.284Z,10.49
2023-03-26T12:07:31.262Z,10.38
2023-03-26T12:08:31.262Z,10.35
2023-03-26T12:09:31.253Z,10.43
2023-03-26T12:10:31.251Z,10.36
2023-03-26T12:11:32.600Z,10.52
2023-03-26T12:12:31.239Z,10.48
2023-03-26T12:13:31.221Z,10.42
2023-03-26T12:14:31.211Z,10.28
2023-03-26T12:15:31.205Z,10.42
2023-03-26T12:16:31.260Z,10.34
2023-03-26T12:17:31.970Z,10.26
2023-03-26T12:18:31.184Z,10.38
2023-03-26T12:19:31.170Z,10.41
2023-03-26T12:20:31.165Z,10.39
2023-03-26T12:21:31.147Z,10.39
2023-03-26T12:22:31.145Z,10.41
2023-03-26T12:23:31.145Z,10.35
2023-03-26T12:24:31.134Z,10.42
2023-03-26T12:25:31.130Z,10.35
2023-03-26T12:26:31.129Z,10.38
2023-03-26T12:27:31.122Z,10.41
2023-03-26T12:28:31.104Z,10.23
2023-03-26T12:29:31.113Z,10.26
2023-03-26T12:30:31.093Z,10.31
2023-03-26T12:31:31.085Z,10.24
2023-03-26T12:32:43.349Z,10.20
2023-03-26T12:33:31.110Z,10.08
2023-03-26T12:34:31.086Z,10.24
2023-03-26T12:35:31.082Z,10.28
2023-03-26T12:36:31.060Z,10.18
2023-03-26T12:37:31.037Z,10.21
2023-03-26T12:38:31.033Z,10.38
2023-03-26T12:40:08.608Z,10.31
2023-03-26T12:40:31.028Z,10.39
2023-03-26T12:44:42.534Z,10.42
2023-03-26T12:44:50.756Z,10.35
2023-03-26T12:44:52.875Z,10.24
2023-03-26T12:44:55.725Z,10.27
2023-03-26T12:45:30.987Z,10.41
2023-03-26T12:47:56.314Z,10.42
2023-03-26T12:47:59.994Z,10.39
2023-03-26T12:48:31.023Z,10.43
2023-03-26T12:49:30.964Z,10.36
2023-03-26T12:50:34.333Z,10.39
2023-03-26T12:51:58.620Z,10.48
2023-03-26T12:52:45.626Z,10.52
2023-03-26T12:53:30.969Z,10.55
2023-03-26T12:56:05.614Z,10.60
2023-03-26T12:57:12.286Z,10.65
2023-03-26T12:59:01.713Z,10.64
2023-03-26T13:00:01.733Z,10.64
2023-03-26T13:01:56.930Z,10.61
2023-03-26T13:02:56.558Z,10.64
2023-03-26T13:03:56.558Z,10.68